x

8661070 - Springmaid Pier, Sc (mros1) Weather Station

3:30pm - Fri 27th May 2016 All times are EDT. -4 hours from GMT.

  • Wind
    13mph, 14mph gusts
  • Sea Temp 76°f
  • Air Temp 76°f
  • Sea Pressure 1019.9mb
  • 8661070 - Springmaid Pier, Sc
  • 8661070 - Springmaid Pier, Sc

More Historic Weather Station data

Upgrade to MSW Pro to gain access to the past 30 days of data for over 8000 Wavebouys and Weather Stations around the globe.

Join Pro

Comparision Forecast

View Surf forecast
   
Fri 05/27 3:30pm 13 14 mph 1019.9mb 76f 76f
3:24pm 13 14 mph 1019.9mb 76f 76f
3:18pm 11 13 mph 1020mb 76f 76f
3:12pm 11 13 mph 1020.1mb 76f 76f
3:06pm 9 11 mph 1020.2mb 76f 76f
3:00pm 11
mph
1020.2mb 76f 76f
2:54pm 10 11 mph 1020.2mb 76f 76f
2:48pm 11 13 mph 1020.1mb 76f 76f
2:42pm 9 11 mph 1020.1mb 75f 76f
2:36pm 9 10 mph 1020.1mb 75f 76f
2:30pm 9 10 mph 1020.1mb 75f 76f
2:24pm 9 11 mph 1020.2mb 75f 76f
2:18pm 10 11 mph 1020.2mb 75f 76f
2:12pm 10 11 mph 1020.1mb 75f 76f
2:06pm 10 11 mph 1020.2mb 75f 76f
2:00pm 10 11 mph 1020.3mb 75f 76f
1:54pm 10 11 mph 1020.4mb 75f 76f
1:48pm 10 11 mph 1020.5mb 75f 76f
1:42pm 10 11 mph 1020.4mb 75f 76f
1:36pm 10 11 mph 1020.4mb 75f 76f
1:30pm 9 10 mph 1020.5mb 75f 76f
1:24pm 10 11 mph 1020.5mb 75f 76f
1:18pm 10 11 mph 1020.5mb 74f 76f
1:12pm 9 10 mph 1020.8mb 74f 76f
1:06pm 8 9 mph 1020.9mb 74f 76f
1:00pm 7 9 mph 1021mb 74f 76f
12:54pm 8 9 mph 1021.1mb 74f 75f
12:48pm 7 8 mph 1021.1mb 74f 76f
12:42pm 7 8 mph 1021.2mb 74f 76f
12:36pm 7 8 mph 1021.2mb 74f 76f
12:30pm 8 9 mph 1021.3mb 74f 76f
12:24pm 8 9 mph 1021.3mb 74f 75f
12:18pm 8 9 mph 1021.2mb 74f 75f
12:12pm 9 10 mph 1021.2mb 74f 75f
12:06pm 9
mph
1021.2mb 74f 75f
12:00pm 8 9 mph 1021.3mb 74f 75f
11:54am 9
mph
1021.3mb 74f 75f
11:48am 10 11 mph 1021.2mb - -
11:42am 8 9 mph 1021.3mb 73f 75f
11:36am 9
mph
1021.3mb 73f 75f
11:30am 9
mph
1021.3mb 73f 75f
11:18am 9 10 mph 1021mb 73f 75f
11:12am 8 9 mph 1021.1mb 73f 75f
11:06am 7 8 mph 1021.1mb 73f 75f
11:00am 7 8 mph 1021.1mb 73f 75f
10:54am 7 8 mph 1021.1mb 73f 75f
10:48am 7 8 mph 1021.1mb 73f 75f
10:42am 7 8 mph 1021mb 73f 75f
10:36am 7 8 mph 1021mb 73f 75f
10:30am 6 7 mph 1021.1mb 73f 75f
10:24am 6 7 mph 1021.1mb 73f 74f
10:18am 6 7 mph 1021.1mb 73f 74f
10:12am 7 8 mph 1021mb 73f 74f
10:06am 8 9 mph 1021mb 73f 74f
10:00am 8
mph
1021.1mb 73f 75f
9:54am 8
mph
1021.1mb 73f 74f
9:48am 7 8 mph 1021.1mb 73f 74f
9:42am 7
mph
1021.2mb 73f 74f
9:36am 7
mph
1021.2mb 73f 74f
9:30am 7
mph
1021.2mb 73f 74f
9:24am 8
mph
1021.1mb 73f 74f
9:18am 7 8 mph 1021.2mb 73f 74f
9:12am 8
mph
1021.2mb 73f 74f
9:06am 8
mph
1021.1mb 73f 74f
9:00am 8
mph
1021mb 73f 74f
8:54am 8 9 mph 1020.9mb 73f 74f
8:48am 7 8 mph 1020.9mb 73f 74f
8:42am 7 8 mph 1020.9mb 73f 73f
8:36am 6 7 mph 1020.9mb 73f 74f
8:30am 7
mph
1020.9mb 73f 73f
8:24am 5 6 mph 1020.9mb 73f 73f
8:18am 5
mph
1020.8mb 73f 73f
8:12am 5
mph
1020.8mb 73f 73f
8:06am 5 6 mph 1020.6mb 73f 73f
8:00am 6
mph
1020.5mb 73f 73f
7:54am 6
mph
1020.5mb 73f 73f
7:48am 5 6 mph 1020.5mb 73f 73f
7:42am 5 6 mph 1020.5mb 73f 73f
7:36am 5
mph
1020.5mb 73f 72f
7:30am 5
mph
1020.5mb 73f 73f
7:24am 3
mph
1020.5mb 73f 73f
7:18am 3
mph
1020.5mb 73f 73f
7:12am 2
mph
1020.5mb 73f 71f
7:06am 2
mph
1020.4mb 73f 71f
7:00am 2
mph
1020.4mb 73f 70f
6:54am 2 3 mph 1020.4mb 74f 69f
6:48am 3
mph
1020.3mb 74f 68f
6:42am 3 5 mph 1020.3mb 73f 68f
6:36am 5 6 mph 1020.3mb 74f 67f
6:30am 5
mph
1020.2mb 74f 67f
6:24am 6
mph
1020.1mb 74f 67f
6:18am 7
mph
1020.1mb 74f 67f
6:12am 6
mph
1020.2mb 74f 67f
6:06am 6 7 mph 1020.2mb 74f 67f
6:00am 7
mph
1020.2mb 74f 67f
5:54am 5 6 mph 1020mb 74f 68f
5:48am 5 6 mph 1019.9mb 74f 68f
5:42am 5 6 mph 1019.9mb 74f 68f
5:36am 5 6 mph 1020mb 74f 67f
5:30am 6 7 mph 1020.1mb 74f 67f
5:24am 7
mph
1020.2mb 74f 68f
5:18am 9 10 mph 1020.2mb 74f 68f
5:12am 7 8 mph 1020.1mb 74f 68f
5:06am 7 8 mph 1020.1mb 74f 68f
5:00am 6 7 mph 1019.9mb 74f 69f
4:54am 5 6 mph 1019.9mb 74f 70f
4:48am 3
mph
1019.8mb 74f 71f
4:42am 2 3 mph 1019.7mb 74f 72f
4:36am  -  1 mph 1019.7mb 74f 73f
4:30am 3 5 mph 1019.7mb 74f 74f
4:24am 3 5 mph 1019.7mb 74f 74f
4:18am 5
mph
1019.7mb 74f 74f
4:12am 5
mph
1019.8mb 74f 74f
4:06am 5 6 mph 1019.9mb 74f 74f
4:00am 6
mph
1019.9mb 74f 74f
3:54am 6 7 mph 1019.9mb 74f 74f
3:48am 6 7 mph 1020mb 74f 75f
3:42am 6 7 mph 1020mb 74f 75f
3:36am 7 8 mph 1019.8mb 74f 75f
3:30am 8 9 mph 1019.8mb 74f 75f
3:24am 8 9 mph 1019.8mb 74f 75f
3:18am 8 9 mph 1019.8mb 74f 75f
3:12am 8 9 mph 1019.9mb 74f 75f
3:06am 9 10 mph 1019.9mb 74f 75f
3:00am 10 11 mph 1019.8mb 74f 75f
2:54am 9 11 mph 1019.9mb 74f 75f
2:48am 10 11 mph 1020mb 74f 75f
2:42am 11 13 mph 1020mb 74f 75f
2:36am 9 11 mph 1020mb 74f 75f
2:30am 10 13 mph 1020mb 74f 75f
2:24am 9 10 mph 1020mb 74f 75f
2:18am 9 10 mph 1020.1mb 74f 75f
2:12am 10 11 mph 1020mb 74f 75f
2:06am 10 13 mph 1019.9mb 74f 75f
2:00am  -  mph 1019.9mb 74f 75f
1:54am  -  mph 1019.9mb 74f 75f
1:48am  -  mph 1020mb 74f 75f
1:42am  -  mph 1020.1mb 74f 75f
1:36am  -  mph 1020.1mb 74f 75f
1:30am 11 14 mph 1020.3mb 74f 75f
1:24am 13 14 mph 1020.2mb 74f 75f
1:18am 13 15 mph 1020.2mb 74f 75f
1:12am 13 14 mph 1020.2mb 74f 75f
1:06am 14 15 mph 1020.1mb 74f 75f
1:00am 13 15 mph 1020.2mb 74f 75f
12:54am 13 15 mph 1020.2mb 74f 75f
12:48am 14 16 mph 1020.1mb 73f 75f
12:42am 14 16 mph 1020mb 73f 75f
12:36am 14 15 mph 1020.1mb 73f 75f
12:30am 13 14 mph 1020.2mb 73f 75f
12:24am 13 14 mph 1020.2mb 73f 75f
12:18am 13 14 mph 1020.4mb 73f 75f
12:12am 13 14 mph 1020.4mb 73f 75f
12:06am 13 15 mph 1020.5mb 73f 75f
12:00am 13 15 mph 1020.6mb 73f 75f
Thu 05/26 11:54pm 13 15 mph 1020.7mb 73f 75f
11:48pm  -  mph 1020.8mb 73f 75f
11:42pm  -  mph 1020.9mb 73f 75f
11:36pm  -  mph 1021mb 73f 75f
11:30pm 9 11 mph 1021mb 73f 75f
11:24pm 10 11 mph 1021.1mb 73f 75f
11:18pm  -  mph 1021.1mb 73f -
11:12pm  -  mph 1021.1mb 73f -
11:06pm  -  mph 1021mb 73f -
11:00pm  -  mph 1021mb 73f -
10:54pm  -  mph 1020.9mb 74f -
10:48pm 13 14 mph 1020.8mb - -
10:42pm 13 14 mph 1020.8mb - -
10:36pm 13 14 mph 1020.8mb - -
10:30pm 11 13 mph 1020.9mb - -
10:24pm 11 14 mph 1020.8mb - -
10:18pm  -  mph 1020.8mb 74f 75f
10:12pm  -  mph 1020.7mb 74f 75f
10:06pm  -  mph 1020.7mb 74f 75f
10:00pm  -  mph 1020.6mb - -
9:54pm  -  mph 1020.6mb - -
9:48pm  -  mph 1020.5mb - -
9:42pm  -  mph 1020.4mb - -
9:36pm  -  mph 1020.4mb - -
9:30pm 10 11 mph 1020.4mb - -
9:24pm 10 11 mph 1020.4mb - -
9:18pm  -  mph 1020.3mb 75f -
9:12pm  -  mph 1020.2mb 75f -
9:06pm  -  mph 1020.1mb 75f -
9:00pm  -  mph 1020mb - -
8:54pm  -  mph 1020mb - -
8:48pm  -  mph 1020mb - -
8:42pm  -  mph 1020mb - -
8:36pm  -  mph 1019.9mb - -
8:30pm 13 14 mph 1019.9mb 75f -
8:24pm 13 14 mph 1019.9mb 75f -
8:18pm  -  mph - 75f 75f
8:12pm  -  mph - 75f 75f
8:06pm  -  mph - 75f 75f
8:00pm  -  mph 1019.6mb - -
7:54pm  -  mph 1019.6mb - -
7:48pm  -  mph - 75f -
7:42pm  -  mph - 75f -
7:36pm  -  mph - 75f -
7:30pm 11 13 mph 1019.5mb 75f -
7:24pm 13 14 mph 1019.6mb 75f -
7:18pm  -  mph - 75f 76f
7:12pm  -  mph - 75f 76f
7:06pm  -  mph - 75f 76f
7:00pm 14
mph
1019.8mb - -
6:54pm 13 15 mph 1019.8mb - -
6:48pm  -  mph - 75f -
6:42pm  -  mph - 75f -
6:36pm  -  mph - 75f -
6:30pm 15 16 mph 1019.8mb 75f -
6:24pm 14 16 mph 1019.8mb 75f -
6:18pm  -  mph 1019.9mb 75f 76f
6:12pm  -  mph 1019.9mb 75f 76f
6:06pm  -  mph 1020mb 75f 76f
6:00pm 15 17 mph 1020mb 76f -
5:54pm 15 17 mph 1020.2mb 75f -
5:48pm  -  mph - 75f 76f
5:42pm  -  mph - 75f 76f
5:36pm  -  mph - 75f 76f
5:30pm 14 16 mph 1020.3mb 75f 76f
5:24pm 14 15 mph 1020.3mb 75f 76f
5:18pm 13 15 mph 1020.3mb 75f 76f
5:12pm 14 15 mph 1020.4mb 76f 76f
5:06pm 15 16 mph 1020.5mb 75f 76f
5:00pm 14 15 mph 1020.6mb 75f 76f
4:54pm 13 14 mph 1020.7mb 75f 76f
4:48pm 13 14 mph 1020.7mb 75f 76f
4:42pm 11 14 mph 1020.7mb 75f 76f
4:36pm 14 15 mph 1020.7mb 75f 76f
4:30pm 13 14 mph 1020.8mb 75f 76f
4:24pm 13 14 mph 1020.8mb 75f 76f
4:18pm 11 13 mph 1020.9mb 75f 76f
4:12pm 14 15 mph 1020.9mb 75f 76f
4:06pm 13 14 mph 1020.9mb 75f 76f
4:00pm 13 14 mph 1020.9mb 75f 76f
3:54pm 11 13 mph 1021mb 75f 76f
3:48pm 13 15 mph 1021mb 76f 76f
3:42pm 14 15 mph 1021.2mb 76f 76f
3:36pm 13 14 mph 1021.2mb 76f 76f
3:30pm 14 15 mph 1021.3mb 76f 76f
3:24pm 13 14 mph 1021.3mb 76f 76f
3:18pm 13 15 mph 1021.3mb 76f 76f
3:12pm 14 15 mph 1021.3mb 75f 76f
3:06pm 15 17 mph 1021.3mb 75f 76f
3:00pm 14 16 mph 1021.3mb 75f 76f
2:54pm 14 16 mph 1021.5mb 75f 76f
2:48pm 14 16 mph 1021.5mb 75f 76f
2:42pm 14 15 mph 1021.5mb 75f 76f
2:36pm 15 16 mph 1021.5mb 75f 76f
2:30pm 14 16 mph 1021.6mb 75f 76f
2:24pm 14 16 mph 1021.6mb 75f 76f
2:18pm 14 15 mph 1021.7mb 75f 76f
2:12pm 13 14 mph 1021.7mb 75f 76f
2:06pm 14 15 mph 1021.8mb 75f 76f
2:00pm 14 16 mph 1021.8mb 74f 76f
1:54pm 14 15 mph 1021.9mb 74f 76f
1:48pm  -  mph 1022mb 73f 76f
1:42pm  -  mph 1022mb 74f 76f
1:36pm  -  mph 1022.1mb 74f 76f
1:30pm 14 15 mph 1022.1mb 73f 76f
1:24pm 14 16 mph 1022.1mb 73f 76f
1:18pm 13 14 mph 1022.2mb 73f 76f
1:12pm 13 14 mph 1022.2mb 73f 76f
1:06pm 13 15 mph 1022.1mb 73f 76f
1:00pm 13 14 mph 1022.1mb 73f 76f
12:54pm 13 14 mph 1022.2mb 73f 76f
12:48pm 11 14 mph 1022.3mb 73f 76f
12:42pm 13 14 mph 1022.3mb 73f 76f
12:36pm 14 15 mph 1022.4mb 73f 76f
12:30pm 13 14 mph 1022.5mb 73f 76f
12:24pm 14 15 mph 1022.6mb 73f 76f
12:18pm 13 14 mph 1022.6mb 73f 76f
12:12pm 13 14 mph 1022.6mb 73f 76f
12:06pm 13 14 mph 1022.7mb 73f 76f
12:00pm 11 13 mph 1022.7mb 73f 76f
11:54am 11 14 mph 1022.8mb 73f 76f
11:48am 11 14 mph 1022.9mb 73f 76f
11:42am 10 13 mph 1022.8mb 73f 76f
11:36am 11 13 mph 1022.8mb 73f 76f
11:30am 10 11 mph 1022.8mb 73f 76f
11:24am 10 11 mph 1022.8mb 73f 76f
11:18am 10 11 mph 1022.8mb 73f 76f
11:12am 10 11 mph 1022.9mb 73f 76f
11:06am 9 10 mph 1022.9mb 73f 76f
11:00am 10 11 mph 1022.8mb 73f 75f
10:54am 9 11 mph 1022.7mb 73f 76f
10:48am 9 10 mph 1022.8mb 73f 76f
10:42am 10 11 mph 1022.9mb 73f 76f
10:36am 10 11 mph 1022.9mb 73f 75f
10:30am 10 11 mph 1023mb 73f 76f
10:24am 10 11 mph 1023mb 73f 76f
10:18am 10 13 mph 1022.9mb 73f 75f
10:12am 10 11 mph 1022.9mb 73f 75f
10:06am 10 11 mph 1023mb 73f 75f
10:00am 9 11 mph 1022.9mb 73f 75f
9:54am 9 10 mph 1022.8mb 73f 75f
9:48am 9 10 mph 1022.8mb 73f 75f
9:42am 8 10 mph 1022.8mb 73f 75f
9:36am 9 13 mph 1022.9mb 73f 75f
9:30am 8 9 mph 1023mb 73f 75f
9:24am 9
mph
1023.1mb 73f 75f
9:18am 8 9 mph 1023.2mb 73f 74f
9:12am 7 8 mph 1023.2mb 73f 74f
9:06am 7 8 mph 1023.2mb 73f 74f
9:00am 8 9 mph 1023.1mb 73f 74f
8:54am 7 8 mph 1023.2mb 73f 74f
8:48am 6
mph
1023.2mb 73f 74f
8:42am 7 8 mph 1023mb 73f 74f
8:36am 7 8 mph 1023.1mb 73f 74f
8:30am 8 9 mph 1023.1mb 73f 74f
8:24am 7 8 mph 1023.1mb 73f 74f
8:18am 7 8 mph 1023.1mb 73f 74f
8:12am 7
mph
1023.1mb 73f 74f
8:06am 6 7 mph 1023mb 73f 73f
8:00am 5 6 mph 1023mb 73f 73f
7:54am 3 5 mph 1023mb 73f 73f
7:48am 3 5 mph 1023mb 73f 74f
7:42am 3 5 mph 1022.8mb 73f 73f
7:36am 5 6 mph 1022.7mb 73f 73f
7:30am 6
mph
1022.7mb 73f 73f
7:24am 6
mph
1022.7mb 73f 73f
7:18am 2 3 mph 1022.7mb 73f 73f
7:12am 2 3 mph 1022.7mb 73f 72f
7:06am 5
mph
1022.6mb 73f 72f
7:00am 6 7 mph 1022.5mb 73f 72f
6:54am 6 7 mph 1022.5mb 73f 72f
6:48am 5 6 mph 1022.5mb 73f 72f
6:42am 3 5 mph 1022.4mb 73f 72f
6:36am 3
mph
1022.4mb 73f 71f
6:30am 3 5 mph 1022.2mb 73f 71f
6:24am 6 7 mph 1022.1mb 73f 71f
6:18am 6 8 mph 1022.1mb 73f 71f
6:12am 7 8 mph 1022.1mb 73f 71f
6:06am 8 9 mph 1022.2mb 73f 71f
6:00am 7
mph
1022.2mb 73f 71f
5:54am 6
mph
1022.2mb 73f 72f
5:48am 5 6 mph 1022.2mb 74f 72f
5:42am 6 7 mph 1022.2mb 74f 72f
5:36am 6 7 mph 1022.1mb 74f 72f
5:30am 8 10 mph 1022mb 74f 72f
5:24am 9 10 mph 1021.8mb 73f 72f
5:18am 8 10 mph 1021.7mb 73f 72f
5:12am 9 11 mph 1021.7mb 74f 72f
5:06am 9 13 mph 1021.6mb 73f 73f
5:00am 8 9 mph 1021.7mb 74f 73f
4:54am 8 9 mph 1021.7mb 74f 73f
4:48am 7 9 mph 1021.7mb 74f 73f
4:42am 6 9 mph 1021.8mb 74f 72f
4:36am 10 13 mph 1021.8mb 74f 73f
4:30am 9 10 mph 1021.7mb 74f 73f
4:24am 9 10 mph 1021.7mb 74f 73f
4:18am 9 10 mph 1021.7mb 74f 73f
4:12am 7 8 mph 1021.7mb 74f 73f
4:06am 8 9 mph 1021.7mb 74f 73f
4:00am 8 9 mph 1021.7mb 74f 73f
3:54am 8 10 mph 1021.8mb 74f 73f
3:48am 7 8 mph 1021.9mb 74f 73f
3:42am 7 8 mph 1021.8mb 74f 73f
3:36am 6
mph
1021.8mb 74f 73f
3:30am 7 8 mph 1021.8mb 74f 74f
3:24am 8
mph
1021.7mb 74f 74f
3:18am 9 10 mph 1021.6mb 74f 74f
3:12am 9 10 mph 1021.5mb 74f 74f
3:06am 9 10 mph 1021.5mb 74f 74f
3:00am 9 10 mph 1021.5mb 74f 74f
2:54am 9 10 mph 1021.5mb 74f 74f
2:48am 8 9 mph 1021.5mb 74f 74f
2:42am 9
mph
1021.6mb 74f 74f
2:36am 8 9 mph 1021.7mb 74f 74f
2:30am 9 10 mph 1021.7mb 74f 74f
2:24am 8 9 mph 1021.7mb 74f 74f
2:18am 8 9 mph 1021.6mb 74f 74f
2:12am 9 10 mph 1021.7mb 74f 74f
2:06am 9 10 mph 1021.7mb 74f 74f
2:00am 9 10 mph 1021.8mb 74f 74f
1:54am 10 11 mph 1021.8mb 74f 74f
1:48am 10 11 mph 1021.8mb 74f 74f
1:42am 10 11 mph 1021.9mb 74f 74f
1:36am 10 11 mph 1022mb 74f 74f
1:30am 9 11 mph 1022.1mb 74f 74f
1:24am 9 10 mph 1022.2mb 74f 74f
1:18am 9 10 mph 1022.3mb 74f 74f
1:12am 9 10 mph 1022.4mb 74f 74f
1:06am 9 10 mph 1022.4mb 74f 74f
1:00am 10 11 mph 1022.4mb 74f 74f
12:54am 9 10 mph 1022.4mb 74f 74f
12:48am 9 11 mph 1022.4mb 74f 74f
12:42am 10 11 mph 1022.4mb 74f 74f
12:36am 10 13 mph 1022.5mb 74f 74f
12:30am 10 13 mph 1022.5mb 74f 74f
12:24am 11 13 mph 1022.6mb 74f 74f
12:18am 10 11 mph 1022.6mb 73f 74f
12:12am 10
mph
1022.6mb 73f 74f
12:06am 10 11 mph 1022.6mb 73f 74f
12:00am 11 13 mph 1022.7mb 73f 74f
Wed 05/25 11:54pm 10 13 mph 1022.7mb 73f 74f
11:48pm  -  mph 1022.7mb 73f 74f
11:42pm  -  mph 1022.7mb 73f 74f
11:36pm  -  mph 1022.7mb 73f 74f
11:30pm 13 14 mph 1022.7mb 73f 74f
11:24pm 13 14 mph 1022.8mb 73f 74f
11:18pm  -  mph 1022.8mb 74f 74f
11:12pm  -  mph 1022.8mb 74f 74f
11:06pm  -  mph 1022.8mb 74f 74f
11:00pm  -  mph - 74f 74f
10:54pm  -  mph - 74f 74f
10:48pm  -  mph 1022.7mb - -
10:42pm  -  mph 1022.7mb - -
10:36pm  -  mph 1022.7mb - -
10:30pm 10 11 mph 1022.6mb 74f -
10:24pm 10 13 mph 1022.6mb 74f -
10:18pm  -  mph 1022.6mb 75f 74f
10:12pm  -  mph 1022.6mb 75f 74f
10:06pm  -  mph 1022.5mb 75f 74f
10:00pm 11 13 mph 1022.5mb 75f -
9:54pm 13 14 mph 1022.4mb 75f -
9:48pm  -  mph 1022.3mb 75f -
9:42pm  -  mph 1022.3mb 75f -
9:36pm  -  mph 1022.2mb 75f -
9:30pm 11 14 mph 1022.2mb 75f -
9:24pm 13 15 mph 1022.2mb 75f -
9:18pm 13 15 mph 1022.2mb 75f -
9:12pm 13 15 mph 1022.2mb 75f -
9:06pm 13 14 mph 1022.1mb 75f -
9:00pm  -  mph 1021.9mb 75f -
8:54pm  -  mph 1021.9mb 75f -
8:48pm  -  mph 1021.8mb 75f -
8:42pm  -  mph 1021.9mb 75f -
8:36pm  -  mph 1021.8mb 75f -
8:30pm 15 18 mph 1021.8mb 75f -
8:24pm 14 16 mph 1021.7mb 75f -
8:18pm  -  mph 1021.7mb 75f 75f
8:12pm  -  mph 1021.6mb 75f 74f
8:06pm  -  mph 1021.6mb 75f 75f
8:00pm 13 15 mph 1021.6mb 75f -
7:54pm 11 14 mph 1021.6mb 75f -
7:48pm 14 15 mph - 75f -
7:42pm 13 14 mph - 75f -
7:36pm 13 15 mph - 75f -
7:30pm 11 14 mph 1021.4mb 75f -
7:24pm 13 14 mph 1021.5mb 75f -
7:18pm  -  mph 1021.4mb 75f 75f
7:12pm  -  mph 1021.3mb 75f 75f
7:06pm  -  mph 1021.3mb 75f 75f
7:00pm  -  mph 1021.3mb 75f -
6:54pm  -  mph 1021.2mb 75f -
6:48pm 14 15 mph 1021.3mb - -
6:42pm 13 15 mph 1021.3mb - -
6:36pm 14 16 mph 1021.4mb - -
6:30pm 14 15 mph 1021.4mb - -
6:24pm 14 15 mph 1021.5mb - -
6:18pm 13 14 mph 1021.6mb 75f 76f
6:12pm 13 14 mph 1021.6mb 75f 76f
6:06pm 13 15 mph 1021.7mb 75f 76f
6:00pm 13 15 mph 1021.8mb 75f -
5:54pm 13 14 mph 1021.9mb 75f -
5:48pm  -  mph 1021.9mb - -
5:42pm  -  mph 1022mb - -
5:36pm  -  mph 1022mb - -
5:30pm 14 16 mph 1022mb 75f 76f
5:24pm 14 15 mph 1022mb 75f 76f
5:18pm 14 16 mph 1022.1mb 75f 76f
5:12pm 14 15 mph 1022.1mb 75f 76f
5:06pm 14 15 mph 1022.2mb 75f 76f
5:00pm 15 16 mph 1022.2mb 75f 76f
4:54pm 15 16 mph 1022.2mb 75f 76f
4:48pm 15 16 mph 1022.2mb 75f 76f
4:42pm 15 17 mph 1022.3mb 75f 76f
4:36pm 15 17 mph 1022.4mb 75f 76f
4:30pm 15 16 mph 1022.4mb 75f 76f
4:24pm 14 16 mph 1022.4mb 75f 76f
4:18pm 14 15 mph 1022.4mb 76f 76f
4:12pm 15 16 mph 1022.4mb 76f 76f
4:06pm 14 17 mph 1022.4mb 76f 76f
4:00pm 14 16 mph 1022.4mb 76f 76f
3:54pm 14 15 mph 1022.4mb 76f 76f
3:48pm 13 14 mph 1022.5mb 76f 76f
3:42pm 13 15 mph 1022.5mb 76f 76f
3:36pm 14 16 mph 1022.5mb 75f 76f
3:30pm 13 15 mph 1022.5mb 75f 76f
3:24pm 14 16 mph 1022.6mb 75f 76f
3:18pm 14 16 mph 1022.6mb 75f 76f
3:12pm 14 16 mph 1022.6mb 75f 76f
3:06pm 13 16 mph 1022.7mb 75f 76f
3:00pm 14 16 mph 1022.8mb 75f 76f
2:54pm 14 16 mph 1022.8mb 75f 75f
2:48pm 14 15 mph 1022.8mb 75f 76f
2:42pm 14 15 mph 1022.9mb 75f 76f
2:36pm 14 16 mph 1022.8mb 75f 75f
2:30pm 14 15 mph 1022.8mb 75f 75f
2:24pm 14 16 mph 1022.8mb 75f 75f
2:18pm 14 16 mph 1022.8mb 75f 75f
2:12pm 13 15 mph 1022.9mb 75f 75f
2:06pm 14 16 mph 1022.9mb 75f 75f
2:00pm 15 16 mph 1023mb 75f 75f
1:54pm 14 16 mph 1023.1mb 75f 75f
1:48pm 14 15 mph 1023.2mb 75f 75f
1:42pm 14 16 mph 1023.2mb 75f 75f
1:36pm 14 16 mph 1023.2mb 75f 75f
1:30pm 13 15 mph 1023.2mb 75f 75f
1:24pm 13 14 mph 1023.2mb 75f 75f
1:18pm 13 14 mph 1023.3mb 74f 75f
1:12pm 11 14 mph 1023.4mb 74f 75f
1:06pm 13 14 mph 1023.4mb 74f 75f
1:00pm 14 15 mph 1023.4mb 74f 75f
12:54pm 13 14 mph 1023.5mb 74f 75f
12:48pm 13 14 mph 1023.4mb 74f 76f
12:42pm 11 14 mph 1023.5mb 74f 75f
12:36pm 13 15 mph 1023.5mb 74f 75f
12:30pm 11 14 mph 1023.6mb 74f 75f
12:24pm 11 14 mph 1023.7mb 74f 75f
12:18pm 10 13 mph 1023.7mb 74f 75f
12:12pm 11 13 mph 1023.6mb 74f 75f
12:06pm 11 14 mph 1023.6mb 74f 75f
12:00pm 11 14 mph 1023.7mb 74f 75f
11:54am 13 14 mph 1023.8mb 74f 75f
11:48am 11 13 mph 1023.8mb 74f 75f
11:42am 11 13 mph 1023.8mb 74f 75f
11:36am 10 11 mph 1023.9mb 74f 75f
11:30am 11 13 mph 1023.8mb 74f 74f
11:24am 10 13 mph 1023.8mb 74f 74f
11:18am 11 13 mph 1023.8mb 74f 74f
11:12am 11 13 mph 1023.7mb 74f 74f
11:06am 11 13 mph 1023.8mb 74f 74f
11:00am 11 13 mph 1023.7mb 74f 74f
10:54am 10 11 mph 1023.8mb 74f 74f
10:48am 11
mph
1023.8mb 74f 74f
10:42am 10 13 mph 1023.8mb 74f 74f
10:36am 9 10 mph 1023.9mb 74f 74f
10:30am 9 10 mph 1023.9mb 74f 74f
10:24am 9 10 mph 1024mb 74f 74f
10:18am 9 10 mph 1024mb 73f 74f
10:12am 9 10 mph 1024mb 73f 74f
10:06am 8 9 mph 1024mb 73f 74f
10:00am 8 10 mph 1024mb 73f 74f
9:54am 8 9 mph 1024.1mb 73f 74f
9:48am 8 10 mph 1024.2mb 73f 74f
9:42am 7 8 mph 1024.2mb 73f 74f
9:36am 8 9 mph 1024.2mb 73f 74f
9:30am 8 9 mph 1024.2mb 73f 74f
9:24am 7 8 mph 1024.2mb 73f 74f
9:18am 8 9 mph 1024.2mb 73f 74f
9:12am 8 9 mph 1024.2mb 73f 74f
9:06am 7 8 mph 1024.2mb 73f 73f
9:00am 6 7 mph 1024mb 73f 74f
8:54am 5 6 mph 1024.1mb 73f 74f
8:48am 7
mph
1024mb 73f 74f
8:42am 5 6 mph 1023.9mb 73f 74f
8:36am 5 6 mph 1023.8mb 73f 74f
8:30am 5
mph
1023.7mb 73f 74f
8:24am 3 5 mph 1023.7mb 73f 73f
8:18am 3 5 mph 1023.7mb 73f 73f
8:12am 5
mph
1023.6mb 73f 72f
8:06am 5 6 mph 1023.6mb 73f 72f
8:00am 5
mph
1023.6mb 73f 72f
7:54am 5
mph
1023.6mb 73f 71f
7:48am 5 6 mph 1023.5mb 73f 71f
7:42am 5 6 mph 1023.5mb 73f 71f
7:36am 6 7 mph 1023.4mb 73f 71f
7:30am 5 6 mph 1023.3mb 73f 71f
7:24am 5
mph
1023.2mb 73f 70f
7:18am 6 7 mph 1023.2mb 73f 70f
7:12am 5 6 mph 1023mb 73f 70f
7:06am 5 6 mph 1023mb 73f 69f
7:00am 5 6 mph 1022.8mb 73f 69f
6:54am 5 6 mph 1022.6mb 73f 69f
6:48am 5
mph
1022.5mb 73f 69f
6:42am 5 6 mph 1022.5mb 73f 69f
6:36am 5 6 mph 1022.4mb 73f 69f
6:30am 5 6 mph 1022.4mb 73f 69f
6:24am 6
mph
1022.5mb 73f 69f
6:18am 6 7 mph 1022.4mb 73f 69f
6:12am 6 7 mph 1022.3mb 73f 69f
6:06am 5 6 mph 1022.2mb 73f 68f
6:00am 5 6 mph 1022.2mb 73f 68f
5:54am 3 5 mph 1022.2mb 73f 68f
5:48am 3 5 mph 1022.1mb 73f 69f
5:42am 6 7 mph 1022.1mb 73f 69f
5:36am 6 7 mph 1022mb 73f 69f
5:30am 6 7 mph 1021.9mb 73f 69f
5:24am 6 7 mph 1021.9mb 73f 69f
5:18am 6 7 mph 1021.9mb 73f 69f
5:12am 6 7 mph 1021.9mb 73f 69f
5:06am 6 7 mph 1021.9mb 73f 69f
5:00am 7 8 mph 1021.9mb 73f 69f
4:54am 6 7 mph 1021.9mb 73f 69f
4:48am 6 7 mph 1021.8mb 73f 69f
4:42am 6 7 mph 1021.7mb 73f 69f
4:36am 6 7 mph 1021.8mb 73f 69f
4:30am 7
mph
1021.8mb 73f 69f
4:24am 6 8 mph 1021.7mb 73f 69f
4:18am 6 7 mph 1021.8mb 73f 70f
4:12am 7 8 mph 1021.8mb 73f 70f
4:06am 7 8 mph 1021.8mb 73f 70f
4:00am 6 7 mph 1021.8mb 73f 70f
3:54am 6 8 mph 1021.7mb 73f 70f
3:48am 6 7 mph 1021.8mb 73f 70f
3:42am 6 7 mph 1021.8mb 73f 70f
3:36am 6 7 mph 1021.8mb 73f 70f
3:30am 6 7 mph 1021.8mb 73f 70f
3:24am 6 7 mph 1021.7mb 73f 70f
3:18am 6 7 mph 1021.7mb 74f 70f
3:12am 7 8 mph 1021.7mb 74f 70f
3:06am 7
mph
1021.7mb 74f 70f
3:00am 7
mph
1021.7mb 74f 70f
2:54am 7 8 mph 1021.7mb 74f 70f
2:48am 7 8 mph 1021.7mb 74f 70f
2:42am 7 8 mph 1021.7mb 74f 70f
2:36am 7 8 mph 1021.6mb 74f 70f
2:30am 7 8 mph 1021.7mb 74f 70f
2:24am 6 7 mph 1021.7mb 74f 70f
2:18am 7
mph
1021.8mb 74f 70f
2:12am 6 7 mph 1021.8mb 74f 70f
2:06am 6 7 mph 1021.8mb 74f 70f
2:00am 7 8 mph 1021.8mb 74f 70f
1:54am 7
mph
1021.8mb 74f 70f
1:48am 6 7 mph 1021.8mb 74f 70f
1:42am 7
mph
1021.7mb 74f 70f
1:36am 6 7 mph 1021.8mb 74f 70f
1:30am 6 7 mph 1021.9mb 74f 70f
1:24am 6 7 mph 1021.8mb 74f 70f
1:18am 6 7 mph 1021.9mb 74f 70f
1:12am 6 7 mph 1021.9mb 74f 71f
1:06am 7 8 mph 1021.9mb 74f 71f
1:00am 7
mph
1021.9mb 74f 71f
12:54am 7 8 mph 1021.9mb 74f 71f
12:48am 6 7 mph 1021.9mb 74f 71f
12:42am 7
mph
1021.9mb 74f 71f
12:36am 7
mph
1022mb 74f 71f
12:30am 7 8 mph 1022mb 74f 71f
12:24am 6 7 mph 1022mb 74f 71f
12:18am 6 7 mph 1022mb 74f 72f
12:12am 7 10 mph 1022mb 74f 72f
12:06am 11 13 mph 1022.1mb 74f 73f
12:00am 13 15 mph 1022.1mb 74f 73f
Tue 05/24 11:54pm 13 14 mph 1022.1mb 74f 73f
11:48pm  -  mph 1022.1mb 74f 73f
11:42pm  -  mph 1022mb 74f 73f
11:36pm  -  mph 1022mb 74f 73f
11:30pm 15 16 mph 1022mb 74f 73f
11:24pm 15 16 mph 1021.9mb 74f 73f
11:18pm  -  mph 1021.9mb 74f 73f
11:12pm  -  mph 1021.8mb 74f 73f
11:06pm  -  mph 1021.8mb 74f 73f
11:00pm 14 15 mph 1021.7mb 74f 73f
10:54pm 15 16 mph 1021.7mb 74f 73f
10:48pm 16 18 mph - - -
10:42pm 15 16 mph - - -
10:36pm 17 20 mph - - -
10:30pm 16 17 mph - 74f -
10:24pm 16 18 mph - 74f -
10:18pm  -  mph 1021.5mb 74f 73f
10:12pm  -  mph 1021.4mb 74f 73f
10:06pm  -  mph 1021.4mb 74f 73f
10:00pm  -  mph 1021.3mb 74f 73f
9:54pm  -  mph 1021.3mb 74f 73f
9:48pm  -  mph 1021.3mb - -
9:42pm  -  mph 1021.3mb - -
9:36pm  -  mph 1021.2mb - -
9:30pm 17 18 mph 1021.1mb 74f -
9:24pm 16 18 mph 1021mb 74f -
9:18pm  -  mph 1021mb 74f 73f
9:12pm  -  mph 1020.9mb 74f 73f
9:06pm  -  mph 1020.7mb 74f 73f
9:00pm  -  mph 1020.6mb 74f -
8:54pm  -  mph 1020.5mb 74f -
8:48pm  -  mph 1020.4mb - -
8:42pm  -  mph 1020.4mb - -
8:36pm  -  mph 1020.4mb - -
8:30pm 15 17 mph 1020.3mb - 73f
8:24pm 14 17 mph 1020.3mb - 73f
8:18pm  -  mph 1020.3mb 74f 73f
8:12pm  -  mph 1020.2mb 74f 73f
8:06pm  -  mph 1020.2mb 74f 73f
8:00pm  -  mph 1020.1mb - 73f
7:54pm  -  mph 1020mb - 73f
7:48pm 14 17 mph - 74f -
7:42pm 15 17 mph - 74f -
7:36pm 15 16 mph - 74f -
7:30pm  -  mph 1019.8mb 74f -
7:24pm  -  mph 1019.8mb 74f -
7:18pm  -  mph 1019.8mb 74f 73f
7:12pm  -  mph 1019.8mb 74f 74f
7:06pm  -  mph 1019.8mb 74f 74f
7:00pm  -  mph 1019.7mb 74f 73f
6:54pm  -  mph 1019.6mb 74f 73f
6:48pm  -  mph 1019.6mb 74f 74f
6:42pm  -  mph 1019.6mb 74f 73f
6:36pm  -  mph 1019.6mb 74f 74f
6:30pm 16 18 mph 1019.7mb 74f -
6:24pm 14 16 mph 1019.7mb 74f -
6:18pm 15 17 mph 1019.6mb 74f -
6:12pm 16 18 mph 1019.6mb 74f -
6:06pm 16 17 mph 1019.7mb 74f -
6:00pm  -  mph - - 73f
5:54pm  -  mph - - 73f
5:48pm  -  mph 1019.7mb 74f 73f
5:42pm  -  mph 1019.7mb 74f 73f
5:36pm  -  mph 1019.7mb 74f 73f
5:30pm 15 17 mph 1019.7mb 74f 73f
5:24pm 15 16 mph 1019.7mb 74f 73f
5:18pm 15 16 mph 1019.7mb 74f 73f
5:12pm 15 17 mph 1019.8mb 74f 73f
5:06pm 15 16 mph 1019.9mb 74f 73f
5:00pm 17 20 mph 1019.9mb 74f 73f
4:54pm 16 18 mph 1020.1mb 74f 73f
4:48pm 17 18 mph 1020mb 74f 73f
4:42pm 18 20 mph 1020mb 74f 73f
4:36pm 18 21 mph 1020.1mb 74f 73f
4:30pm 16 18 mph 1020.1mb 74f 73f
4:24pm 17 20 mph 1020.2mb 74f 73f
4:18pm 18 21 mph 1020.2mb 74f 73f
4:12pm 17 20 mph 1020.2mb 74f 73f
4:06pm 17 20 mph 1020.2mb 74f 73f
4:00pm 17 20 mph 1020.2mb 74f 73f
3:54pm 17 20 mph 1020.2mb 74f 73f
3:48pm 17 20 mph 1020.3mb 74f 73f
3:42pm 17 20 mph 1020.4mb 74f 73f
3:36pm 16 18 mph 1020.5mb 74f 73f
3:30pm 17 21 mph 1020.5mb 74f 73f
3:24pm 17 20 mph 1020.4mb 74f 73f
3:18pm 18 21 mph 1020.5mb 74f 72f
3:12pm 17 20 mph 1020.5mb 74f 73f
3:06pm 17 20 mph 1020.5mb 74f 72f
3:00pm 17 20 mph 1020.5mb 74f 72f
2:54pm 18 20 mph 1020.6mb 74f 72f
2:48pm 17 18 mph 1020.6mb 74f 72f
2:42pm 16 18 mph 1020.7mb 74f 72f
2:36pm 16 18 mph 1020.7mb 74f 72f
2:30pm 17 20 mph 1020.7mb 74f 72f
2:24pm 17 20 mph 1020.7mb 74f 72f
2:18pm 17 20 mph 1020.7mb 74f 72f
2:12pm 17 20 mph 1020.8mb 73f 72f
2:06pm 17 20 mph 1020.8mb 73f 72f
2:00pm 17 20 mph 1020.8mb 73f 72f
1:54pm 17 20 mph 1020.8mb 73f 72f
1:48pm 16 18 mph 1020.8mb 73f 72f